Airfield :
LOGIN :

Register | Disclaimer

   EN    FR    IT 

 










Legend :    VFR   Marginal VFR   IFR   Intensive IFR   Very Intensive IFR
Visi :
Ceiling :
>= 8 km
>= 3000ft
5 to 8 km
1000 to 3000 ft
1500m to 5 km
500 to 1000 ft
800 to 1500m
200 to 500 ft
< 800m
< 200 ft
Symbols :   Thunderstorms  Fog  Heavy snow  Heavy precipitations  Wind > 20 kt
SIGMETs :     Misc.  Thunderstorms  Icing  Turbulence  Mountain Waves  Volcanic Ashes







- Airport Elevation : 200 ft


EBBL - Klein Brogel AB

CURRENT METAR :
  • 181825Z AUTO 20006KT 9999 BKN200/// 11/02 Q1016 BLU

EXPIRED METARs :
  • 181755Z AUTO 20004KT 9999 FEW200/// 11/01 Q1015 BLU
  • 181725Z AUTO VRB02KT 9999 FEW210/// 12/01 Q1015 BLU
  • 181655Z AUTO 23003KT 9999 NCD 12/01 Q1015 BLU
  • 181625Z AUTO 23004KT 9999 BKN220/// 14/01 Q1015 BLU
  • 181555Z AUTO 22005KT 9999 FEW200/// 15/00 Q1015 BLU

TAF TAF EBBL
Valid from the 18 at 19:00 until the 19 at 07:00 UTC


181541Z 1819/1907 20008KT 9999 FEW200
TEMPO 1819/1901 SCT200
BECMG 1823/1901 25008KT 9999 BKN023 BKN080
TEMPO 1823/1907 5000 -RA SCT010 BKN040
PROB40
TEMPO 1904/1907 2500 RA -DZ OVC006
No reported NOTAMs for that airfield.



MET'MAP, your aeronautical weather chart ! - Copyright ORBIFLY December 2007 - Disclaimer

ORBIFLY MET'MAP TEAM :

Programming & Development : Alexandra Zaïnal
Concept & Development : Baudouin d'Aumeries
Co-Development & Prog : Marc-Olivier Méhu
Technical & hardware support : Manuel Goepfert

Contact : metmap@orbifly.com




SOURCES & CREDITS :

   NOAA